sensor_id;sensor_type;location;lat;lon;timestamp;pressure;altitude;pressure_sealevel;temperature;humidity
61908;BME280;47864;52.526;19.672;2022-12-18T00:00:43;102409.16;;;-4.02;100.00
61908;BME280;47864;52.526;19.672;2022-12-18T00:02:45;102408.25;;;-3.95;100.00
61908;BME280;47864;52.526;19.672;2022-12-18T00:04:47;102408.22;;;-3.93;100.00
61908;BME280;47864;52.526;19.672;2022-12-18T00:06:49;102407.44;;;-4.00;100.00
61908;BME280;47864;52.526;19.672;2022-12-18T00:08:51;102417.78;;;-3.97;100.00
61908;BME280;47864;52.526;19.672;2022-12-18T00:10:53;102409.00;;;-3.82;100.00
61908;BME280;47864;52.526;19.672;2022-12-18T00:13:00;102359.16;;;-4.11;100.00
61908;BME280;47864;52.526;19.672;2022-12-18T00:15:08;102411.59;;;-3.85;100.00
61908;BME280;47864;52.526;19.672;2022-12-18T00:17:10;102413.31;;;-3.81;100.00
61908;BME280;47864;52.526;19.672;2022-12-18T00:19:13;102402.03;;;-3.78;100.00
61908;BME280;47864;52.526;19.672;2022-12-18T00:21:16;102417.53;;;-3.71;100.00
61908;BME280;47864;52.526;19.672;2022-12-18T00:23:18;102394.41;;;-3.92;100.00
61908;BME280;47864;52.526;19.672;2022-12-18T00:25:20;102428.00;;;-3.81;100.00
61908;BME280;47864;52.526;19.672;2022-12-18T00:27:22;102433.19;;;-3.85;100.00
61908;BME280;47864;52.526;19.672;2022-12-18T00:29:24;102429.66;;;-3.73;100.00
61908;BME280;47864;52.526;19.672;2022-12-18T00:31:26;102423.84;;;-4.02;100.00
61908;BME280;47864;52.526;19.672;2022-12-18T00:33:28;102407.38;;;-3.95;100.00
61908;BME280;47864;52.526;19.672;2022-12-18T00:35:31;102410.78;;;-3.87;100.00
61908;BME280;47864;52.526;19.672;2022-12-18T00:37:34;102437.38;;;-3.70;100.00
61908;BME280;47864;52.526;19.672;2022-12-18T00:39:36;102407.28;;;-3.86;100.00
61908;BME280;47864;52.526;19.672;2022-12-18T00:41:37;102445.91;;;-3.56;100.00
61908;BME280;47864;52.526;19.672;2022-12-18T00:43:39;102450.38;;;-3.71;100.00
61908;BME280;47864;52.526;19.672;2022-12-18T00:45:42;102434.03;;;-3.81;100.00
61908;BME280;47864;52.526;19.672;2022-12-18T00:47:45;102409.97;;;-3.95;100.00
61908;BME280;47864;52.526;19.672;2022-12-18T00:49:47;102447.91;;;-3.85;100.00
61908;BME280;47864;52.526;19.672;2022-12-18T00:51:49;102458.91;;;-3.62;100.00
61908;BME280;47864;52.526;19.672;2022-12-18T00:53:51;102429.03;;;-4.01;100.00
61908;BME280;47864;52.526;19.672;2022-12-18T00:55:52;102460.84;;;-3.82;100.00
61908;BME280;47864;52.526;19.672;2022-12-18T00:57:54;102445.44;;;-3.97;100.00
61908;BME280;47864;52.526;19.672;2022-12-18T00:59:56;102473.66;;;-3.70;100.00
61908;BME280;47864;52.526;19.672;2022-12-18T01:01:58;102465.16;;;-3.83;100.00
61908;BME280;47864;52.526;19.672;2022-12-18T01:04:02;102491.88;;;-3.76;100.00
61908;BME280;47864;52.526;19.672;2022-12-18T01:06:07;102491.13;;;-3.87;100.00
61908;BME280;47864;52.526;19.672;2022-12-18T01:08:09;102491.94;;;-3.82;100.00
61908;BME280;47864;52.526;19.672;2022-12-18T01:10:12;102491.03;;;-3.75;100.00
61908;BME280;47864;52.526;19.672;2022-12-18T01:12:14;102491.00;;;-3.72;100.00
61908;BME280;47864;52.526;19.672;2022-12-18T01:14:15;102482.53;;;-3.95;100.00
61908;BME280;47864;52.526;19.672;2022-12-18T01:16:17;102458.31;;;-3.91;100.00
61908;BME280;47864;52.526;19.672;2022-12-18T01:18:19;102466.19;;;-4.00;100.00
61908;BME280;47864;52.526;19.672;2022-12-18T01:20:21;102479.94;;;-3.94;100.00
61908;BME280;47864;52.526;19.672;2022-12-18T01:22:23;102498.84;;;-3.81;100.00
61908;BME280;47864;52.526;19.672;2022-12-18T01:24:25;102474.75;;;-3.94;100.00
61908;BME280;47864;52.526;19.672;2022-12-18T01:26:27;102497.19;;;-3.88;100.00
61908;BME280;47864;52.526;19.672;2022-12-18T01:28:29;102473.03;;;-3.93;100.00
61908;BME280;47864;52.526;19.672;2022-12-18T01:30:31;102491.94;;;-3.80;100.00
61908;BME280;47864;52.526;19.672;2022-12-18T01:32:33;102476.66;;;-4.12;100.00
61908;BME280;47864;52.526;19.672;2022-12-18T01:34:36;102505.84;;;-3.92;100.00
61908;BME280;47864;52.526;19.672;2022-12-18T01:36:38;102512.75;;;-3.90;100.00
61908;BME280;47864;52.526;19.672;2022-12-18T01:38:40;102510.09;;;-3.82;100.00
61908;BME280;47864;52.526;19.672;2022-12-18T01:40:42;102517.88;;;-3.84;100.00
61908;BME280;47864;52.526;19.672;2022-12-18T01:42:44;102521.31;;;-3.81;100.00
61908;BME280;47864;52.526;19.672;2022-12-18T01:46:59;102523.94;;;-3.86;100.00
61908;BME280;47864;52.526;19.672;2022-12-18T01:49:01;102532.69;;;-3.98;100.00
61908;BME280;47864;52.526;19.672;2022-12-18T01:51:04;102536.94;;;-3.92;100.00
61908;BME280;47864;52.526;19.672;2022-12-18T01:53:17;102543.94;;;-4.03;100.00
61908;BME280;47864;52.526;19.672;2022-12-18T01:55:23;102546.38;;;-3.79;100.00
61908;BME280;47864;52.526;19.672;2022-12-18T01:57:26;102543.91;;;-3.97;100.00
61908;BME280;47864;52.526;19.672;2022-12-18T01:59:29;102549.91;;;-3.92;100.00
61908;BME280;47864;52.526;19.672;2022-12-18T02:01:32;102549.13;;;-4.02;100.00
61908;BME280;47864;52.526;19.672;2022-12-18T02:03:35;102547.22;;;-3.78;100.00
61908;BME280;47864;52.526;19.672;2022-12-18T02:06:12;102538.63;;;-3.84;100.00
61908;BME280;47864;52.526;19.672;2022-12-18T02:08:27;102550.03;;;-4.07;100.00
61908;BME280;47864;52.526;19.672;2022-12-18T02:10:40;102540.41;;;-3.95;100.00
61908;BME280;47864;52.526;19.672;2022-12-18T02:15:10;102557.69;;;-3.95;100.00
61908;BME280;47864;52.526;19.672;2022-12-18T02:17:16;102555.91;;;-3.86;100.00
61908;BME280;47864;52.526;19.672;2022-12-18T02:22:04;102556.03;;;-4.01;100.00
61908;BME280;47864;52.526;19.672;2022-12-18T02:26:36;102573.28;;;-3.98;100.00
61908;BME280;47864;52.526;19.672;2022-12-18T02:28:47;102579.34;;;-3.99;100.00
61908;BME280;47864;52.526;19.672;2022-12-18T02:30:51;102577.56;;;-3.88;100.00
61908;BME280;47864;52.526;19.672;2022-12-18T02:32:55;102563.63;;;-3.75;100.00
61908;BME280;47864;52.526;19.672;2022-12-18T02:35:01;102578.19;;;-3.59;100.00
61908;BME280;47864;52.526;19.672;2022-12-18T02:37:12;102574.84;;;-3.76;100.00
61908;BME280;47864;52.526;19.672;2022-12-18T02:39:21;102592.13;;;-3.72;100.00
61908;BME280;47864;52.526;19.672;2022-12-18T02:41:25;102569.88;;;-4.05;100.00
61908;BME280;47864;52.526;19.672;2022-12-18T02:43:29;102594.78;;;-3.81;100.00
61908;BME280;47864;52.526;19.672;2022-12-18T02:45:31;102605.19;;;-3.89;100.00
61908;BME280;47864;52.526;19.672;2022-12-18T02:47:37;102587.13;;;-3.98;100.00
61908;BME280;47864;52.526;19.672;2022-12-18T02:52:09;102619.03;;;-3.90;100.00
61908;BME280;47864;52.526;19.672;2022-12-18T02:56:54;102624.00;;;-3.61;100.00
61908;BME280;47864;52.526;19.672;2022-12-18T02:59:01;102617.94;;;-3.61;100.00
61908;BME280;47864;52.526;19.672;2022-12-18T03:03:51;102619.69;;;-3.62;100.00
61908;BME280;47864;52.526;19.672;2022-12-18T03:05:58;102635.19;;;-3.53;100.00
61908;BME280;47864;52.526;19.672;2022-12-18T03:08:08;102632.59;;;-3.53;100.00
61908;BME280;47864;52.526;19.672;2022-12-18T03:10:16;102611.94;;;-3.65;100.00
61908;BME280;47864;52.526;19.672;2022-12-18T03:12:32;102588.69;;;-3.78;100.00
61908;BME280;47864;52.526;19.672;2022-12-18T03:14:37;102600.72;;;-3.65;100.00
61908;BME280;47864;52.526;19.672;2022-12-18T03:16:43;102614.38;;;-3.45;100.00
61908;BME280;47864;52.526;19.672;2022-12-18T03:18:53;102590.22;;;-3.50;100.00
61908;BME280;47864;52.526;19.672;2022-12-18T03:20:58;102640.22;;;-3.34;100.00
61908;BME280;47864;52.526;19.672;2022-12-18T03:23:09;102600.56;;;-3.49;100.00
61908;BME280;47864;52.526;19.672;2022-12-18T03:25:13;102636.63;;;-3.17;100.00
61908;BME280;47864;52.526;19.672;2022-12-18T03:27:18;102626.31;;;-3.23;100.00
61908;BME280;47864;52.526;19.672;2022-12-18T03:29:25;102630.63;;;-3.22;100.00
61908;BME280;47864;52.526;19.672;2022-12-18T03:31:31;102628.75;;;-3.06;100.00
61908;BME280;47864;52.526;19.672;2022-12-18T03:34:04;102634.91;;;-3.18;100.00
61908;BME280;47864;52.526;19.672;2022-12-18T03:36:08;102638.44;;;-3.28;100.00
61908;BME280;47864;52.526;19.672;2022-12-18T03:38:10;102640.28;;;-3.40;100.00
61908;BME280;47864;52.526;19.672;2022-12-18T03:40:13;102649.66;;;-3.24;100.00
61908;BME280;47864;52.526;19.672;2022-12-18T03:43:03;102614.28;;;-3.31;100.00
61908;BME280;47864;52.526;19.672;2022-12-18T03:47:30;102656.72;;;-3.45;100.00
61908;BME280;47864;52.526;19.672;2022-12-18T03:53:58;102667.16;;;-3.46;100.00
61908;BME280;47864;52.526;19.672;2022-12-18T03:56:02;102664.56;;;-3.52;100.00
61908;BME280;47864;52.526;19.672;2022-12-18T03:58:06;102669.66;;;-3.37;100.00
61908;BME280;47864;52.526;19.672;2022-12-18T04:00:12;102633.50;;;-3.57;100.00
61908;BME280;47864;52.526;19.672;2022-12-18T04:02:16;102674.00;;;-3.40;100.00
61908;BME280;47864;52.526;19.672;2022-12-18T04:04:20;102682.69;;;-3.45;100.00
61908;BME280;47864;52.526;19.672;2022-12-18T04:06:23;102689.56;;;-3.39;100.00
61908;BME280;47864;52.526;19.672;2022-12-18T04:08:25;102687.09;;;-3.57;100.00
61908;BME280;47864;52.526;19.672;2022-12-18T04:10:27;102662.84;;;-3.49;100.00
61908;BME280;47864;52.526;19.672;2022-12-18T04:12:29;102686.34;;;-3.73;100.00
61908;BME280;47864;52.526;19.672;2022-12-18T04:14:31;102698.38;;;-3.66;100.00
61908;BME280;47864;52.526;19.672;2022-12-18T04:16:33;102712.22;;;-3.70;100.00
61908;BME280;47864;52.526;19.672;2022-12-18T04:18:35;102712.19;;;-3.61;100.00
61908;BME280;47864;52.526;19.672;2022-12-18T04:20:37;102676.88;;;-3.86;100.00
61908;BME280;47864;52.526;19.672;2022-12-18T04:22:38;102715.63;;;-3.57;100.00
61908;BME280;47864;52.526;19.672;2022-12-18T04:24:41;102708.72;;;-3.55;100.00
61908;BME280;47864;52.526;19.672;2022-12-18T04:26:43;102713.09;;;-3.65;100.00
61908;BME280;47864;52.526;19.672;2022-12-18T04:28:45;102713.84;;;-3.49;100.00
61908;BME280;47864;52.526;19.672;2022-12-18T04:30:46;102695.75;;;-3.57;100.00
61908;BME280;47864;52.526;19.672;2022-12-18T04:32:48;102715.63;;;-3.60;100.00
61908;BME280;47864;52.526;19.672;2022-12-18T04:34:53;102730.31;;;-3.56;100.00
61908;BME280;47864;52.526;19.672;2022-12-18T04:36:54;102720.78;;;-3.53;100.00
61908;BME280;47864;52.526;19.672;2022-12-18T04:38:56;102701.03;;;-3.78;100.00
61908;BME280;47864;52.526;19.672;2022-12-18T04:40:58;102700.22;;;-3.86;100.00
61908;BME280;47864;52.526;19.672;2022-12-18T04:43:00;102727.72;;;-3.56;100.00
61908;BME280;47864;52.526;19.672;2022-12-18T04:45:02;102738.00;;;-3.38;100.00
61908;BME280;47864;52.526;19.672;2022-12-18T04:47:04;102740.59;;;-3.44;100.00
61908;BME280;47864;52.526;19.672;2022-12-18T04:49:06;102744.03;;;-3.36;100.00
61908;BME280;47864;52.526;19.672;2022-12-18T04:51:08;102741.44;;;-3.37;100.00
61908;BME280;47864;52.526;19.672;2022-12-18T04:53:10;102715.59;;;-3.51;100.00
61908;BME280;47864;52.526;19.672;2022-12-18T04:55:11;102743.19;;;-3.44;100.00
61908;BME280;47864;52.526;19.672;2022-12-18T04:57:13;102726.06;;;-3.65;100.00
61908;BME280;47864;52.526;19.672;2022-12-18T04:59:15;102701.00;;;-3.70;100.00
61908;BME280;47864;52.526;19.672;2022-12-18T05:01:17;102755.25;;;-3.37;100.00
61908;BME280;47864;52.526;19.672;2022-12-18T05:03:19;102759.56;;;-3.33;100.00
61908;BME280;47864;52.526;19.672;2022-12-18T05:05:22;102740.69;;;-3.55;100.00
61908;BME280;47864;52.526;19.672;2022-12-18T05:07:23;102731.16;;;-3.53;100.00
61908;BME280;47864;52.526;19.672;2022-12-18T05:09:25;102720.91;;;-3.71;100.00
61908;BME280;47864;52.526;19.672;2022-12-18T05:11:27;102739.78;;;-3.52;100.00
61908;BME280;47864;52.526;19.672;2022-12-18T05:13:29;102756.16;;;-3.42;100.00
61908;BME280;47864;52.526;19.672;2022-12-18T05:15:32;102759.72;;;-3.60;100.00
61908;BME280;47864;52.526;19.672;2022-12-18T05:17:34;102757.13;;;-3.62;100.00
61908;BME280;47864;52.526;19.672;2022-12-18T05:19:36;102759.66;;;-3.47;100.00
61908;BME280;47864;52.526;19.672;2022-12-18T05:21:38;102724.44;;;-3.93;100.00
61908;BME280;47864;52.526;19.672;2022-12-18T05:23:39;102754.63;;;-3.72;100.00
61908;BME280;47864;52.526;19.672;2022-12-18T05:25:42;102765.78;;;-3.60;100.00
61908;BME280;47864;52.526;19.672;2022-12-18T05:27:45;102774.41;;;-3.58;100.00
61908;BME280;47864;52.526;19.672;2022-12-18T05:29:48;102751.97;;;-3.69;100.00
61908;BME280;47864;52.526;19.672;2022-12-18T05:31:49;102780.47;;;-3.54;100.00
61908;BME280;47864;52.526;19.672;2022-12-18T05:33:51;102777.88;;;-3.62;100.00
61908;BME280;47864;52.526;19.672;2022-12-18T05:35:56;102748.59;;;-3.80;100.00
61908;BME280;47864;52.526;19.672;2022-12-18T05:37:58;102785.69;;;-3.68;100.00
61908;BME280;47864;52.526;19.672;2022-12-18T05:40:01;102786.47;;;-3.54;100.00
61908;BME280;47864;52.526;19.672;2022-12-18T05:42:03;102790.75;;;-3.45;100.00
61908;BME280;47864;52.526;19.672;2022-12-18T05:44:08;102773.50;;;-3.52;100.00
61908;BME280;47864;52.526;19.672;2022-12-18T05:46:15;102790.72;;;-3.33;100.00
61908;BME280;47864;52.526;19.672;2022-12-18T05:48:18;102769.09;;;-3.36;100.00
61908;BME280;47864;52.526;19.672;2022-12-18T05:50:20;102789.78;;;-3.21;100.00
61908;BME280;47864;52.526;19.672;2022-12-18T05:52:22;102789.84;;;-3.36;100.00
61908;BME280;47864;52.526;19.672;2022-12-18T05:54:27;102792.53;;;-3.49;100.00
61908;BME280;47864;52.526;19.672;2022-12-18T05:56:28;102789.97;;;-3.58;100.00
61908;BME280;47864;52.526;19.672;2022-12-18T05:58:31;102790.00;;;-3.70;100.00
61908;BME280;47864;52.526;19.672;2022-12-18T06:00:34;102709.84;;;-4.17;100.00
61908;BME280;47864;52.526;19.672;2022-12-18T06:02:36;102784.00;;;-3.76;100.00
61908;BME280;47864;52.526;19.672;2022-12-18T06:04:39;102764.19;;;-3.91;100.00
61908;BME280;47864;52.526;19.672;2022-12-18T06:06:41;102805.53;;;-3.58;100.00
61908;BME280;47864;52.526;19.672;2022-12-18T06:08:43;102805.59;;;-3.71;100.00
61908;BME280;47864;52.526;19.672;2022-12-18T06:10:51;102790.09;;;-3.87;100.00
61908;BME280;47864;52.526;19.672;2022-12-18T06:12:53;102787.44;;;-3.68;100.00
61908;BME280;47864;52.526;19.672;2022-12-18T06:14:55;102767.53;;;-3.68;100.00
61908;BME280;47864;52.526;19.672;2022-12-18T06:16:57;102820.16;;;-3.41;100.00
61908;BME280;47864;52.526;19.672;2022-12-18T06:19:00;102819.25;;;-3.37;100.00
61908;BME280;47864;52.526;19.672;2022-12-18T06:21:02;102816.69;;;-3.40;100.00
61908;BME280;47864;52.526;19.672;2022-12-18T06:23:04;102805.59;;;-3.76;100.00
61908;BME280;47864;52.526;19.672;2022-12-18T06:25:06;102815.13;;;-3.78;100.00
61908;BME280;47864;52.526;19.672;2022-12-18T06:27:09;102828.94;;;-3.73;100.00
61908;BME280;47864;52.526;19.672;2022-12-18T06:29:10;102833.25;;;-3.66;100.00
61908;BME280;47864;52.526;19.672;2022-12-18T06:31:12;102841.03;;;-3.72;100.00
61908;BME280;47864;52.526;19.672;2022-12-18T06:33:15;102841.91;;;-3.76;100.00
61908;BME280;47864;52.526;19.672;2022-12-18T06:35:17;102800.50;;;-4.03;100.00
61908;BME280;47864;52.526;19.672;2022-12-18T06:37:22;102848.84;;;-3.84;100.00
61908;BME280;47864;52.526;19.672;2022-12-18T06:39:24;102836.75;;;-3.94;100.00
61908;BME280;47864;52.526;19.672;2022-12-18T06:41:28;102860.97;;;-3.95;100.00
61908;BME280;47864;52.526;19.672;2022-12-18T06:43:30;102867.03;;;-3.87;100.00
61908;BME280;47864;52.526;19.672;2022-12-18T06:45:31;102848.00;;;-3.92;100.00
61908;BME280;47864;52.526;19.672;2022-12-18T06:47:33;102866.13;;;-3.86;100.00
61908;BME280;47864;52.526;19.672;2022-12-18T06:49:35;102879.09;;;-3.81;100.00
61908;BME280;47864;52.526;19.672;2022-12-18T06:51:37;102840.25;;;-3.98;100.00
61908;BME280;47864;52.526;19.672;2022-12-18T06:53:39;102882.50;;;-3.67;100.00
61908;BME280;47864;52.526;19.672;2022-12-18T06:55:42;102882.59;;;-4.08;100.00
61908;BME280;47864;52.526;19.672;2022-12-18T06:57:44;102862.75;;;-4.15;100.00
61908;BME280;47864;52.526;19.672;2022-12-18T06:59:46;102895.56;;;-4.05;100.00
61908;BME280;47864;52.526;19.672;2022-12-18T07:01:47;102884.34;;;-4.21;100.00
61908;BME280;47864;52.526;19.672;2022-12-18T07:03:54;102905.06;;;-4.15;100.00
61908;BME280;47864;52.526;19.672;2022-12-18T07:05:56;102896.44;;;-4.12;100.00
61908;BME280;47864;52.526;19.672;2022-12-18T07:07:58;102905.03;;;-4.00;100.00
61908;BME280;47864;52.526;19.672;2022-12-18T07:10:00;102885.19;;;-4.11;100.00
61908;BME280;47864;52.526;19.672;2022-12-18T07:12:02;102883.50;;;-4.29;100.00
61908;BME280;47864;52.526;19.672;2022-12-18T07:14:04;102911.94;;;-4.02;100.00
61908;BME280;47864;52.526;19.672;2022-12-18T07:16:10;102925.78;;;-3.91;100.00
61908;BME280;47864;52.526;19.672;2022-12-18T07:18:22;102909.34;;;-3.91;100.00
61908;BME280;47864;52.526;19.672;2022-12-18T07:20:24;102919.72;;;-4.03;100.00
61908;BME280;47864;52.526;19.672;2022-12-18T07:22:26;102912.81;;;-4.09;100.00
61908;BME280;47864;52.526;19.672;2022-12-18T07:24:28;102915.41;;;-4.16;100.00
61908;BME280;47864;52.526;19.672;2022-12-18T07:26:30;102905.91;;;-4.07;100.00
61908;BME280;47864;52.526;19.672;2022-12-18T07:28:32;102918.84;;;-3.81;100.00
61908;BME280;47864;52.526;19.672;2022-12-18T07:30:37;102954.25;;;-3.69;100.00
61908;BME280;47864;52.526;19.672;2022-12-18T07:32:39;102949.94;;;-3.66;100.00
61908;BME280;47864;52.526;19.672;2022-12-18T07:34:41;102956.00;;;-3.74;100.00
61908;BME280;47864;52.526;19.672;2022-12-18T07:36:42;102964.66;;;-3.83;100.00
61908;BME280;47864;52.526;19.672;2022-12-18T07:38:47;102962.03;;;-3.77;100.00
61908;BME280;47864;52.526;19.672;2022-12-18T07:40:49;102962.03;;;-3.65;100.00
61908;BME280;47864;52.526;19.672;2022-12-18T07:42:51;102962.91;;;-3.69;100.00
61908;BME280;47864;52.526;19.672;2022-12-18T07:44:55;102969.84;;;-3.94;100.00
61908;BME280;47864;52.526;19.672;2022-12-18T07:47:02;102941.34;;;-3.98;100.00
61908;BME280;47864;52.526;19.672;2022-12-18T07:49:09;102977.59;;;-3.77;100.00
61908;BME280;47864;52.526;19.672;2022-12-18T07:51:11;102953.41;;;-4.02;100.00
61908;BME280;47864;52.526;19.672;2022-12-18T07:53:13;102947.41;;;-4.13;100.00
61908;BME280;47864;52.526;19.672;2022-12-18T07:55:14;102949.09;;;-4.16;100.00
61908;BME280;47864;52.526;19.672;2022-12-18T07:57:17;102971.56;;;-4.03;100.00
61908;BME280;47864;52.526;19.672;2022-12-18T07:59:39;102972.44;;;-3.94;100.00
61908;BME280;47864;52.526;19.672;2022-12-18T08:01:40;102962.06;;;-3.97;100.00
61908;BME280;47864;52.526;19.672;2022-12-18T08:03:43;102938.72;;;-4.35;100.00
61908;BME280;47864;52.526;19.672;2022-12-18T08:05:45;102956.91;;;-4.21;100.00
61908;BME280;47864;52.526;19.672;2022-12-18T08:07:47;102985.41;;;-3.81;100.00
61908;BME280;47864;52.526;19.672;2022-12-18T08:09:48;102981.94;;;-3.94;100.00
61908;BME280;47864;52.526;19.672;2022-12-18T08:11:50;102964.69;;;-4.12;100.00
61908;BME280;47864;52.526;19.672;2022-12-18T08:13:52;102981.06;;;-4.10;100.00
61908;BME280;47864;52.526;19.672;2022-12-18T08:16:02;102987.09;;;-3.85;100.00
61908;BME280;47864;52.526;19.672;2022-12-18T08:18:05;102975.00;;;-3.74;100.00
61908;BME280;47864;52.526;19.672;2022-12-18T08:20:13;102967.25;;;-3.81;100.00
61908;BME280;47864;52.526;19.672;2022-12-18T08:22:15;102984.53;;;-3.80;100.00
61908;BME280;47864;52.526;19.672;2022-12-18T08:24:17;102983.63;;;-3.69;100.00
61908;BME280;47864;52.526;19.672;2022-12-18T08:26:19;102999.19;;;-3.61;100.00
61908;BME280;47864;52.526;19.672;2022-12-18T08:28:22;103006.97;;;-3.61;100.00
61908;BME280;47864;52.526;19.672;2022-12-18T08:30:23;102990.56;;;-3.78;100.00
61908;BME280;47864;52.526;19.672;2022-12-18T08:32:27;103002.66;;;-3.70;100.00
61908;BME280;47864;52.526;19.672;2022-12-18T08:34:29;103010.44;;;-3.84;100.00
61908;BME280;47864;52.526;19.672;2022-12-18T08:36:31;102974.16;;;-3.84;100.00
61908;BME280;47864;52.526;19.672;2022-12-18T08:38:33;102984.50;;;-3.77;100.00
61908;BME280;47864;52.526;19.672;2022-12-18T08:40:35;103001.81;;;-3.64;100.00
61908;BME280;47864;52.526;19.672;2022-12-18T08:42:36;102992.31;;;-3.82;100.00
61908;BME280;47864;52.526;19.672;2022-12-18T08:44:38;103016.50;;;-3.63;100.00
61908;BME280;47864;52.526;19.672;2022-12-18T08:46:41;102984.50;;;-4.03;100.00
61908;BME280;47864;52.526;19.672;2022-12-18T08:48:43;103019.09;;;-3.83;100.00
61908;BME280;47864;52.526;19.672;2022-12-18T08:50:56;103021.69;;;-3.71;100.00
61908;BME280;47864;52.526;19.672;2022-12-18T08:52:58;102976.75;;;-3.84;100.00
61908;BME280;47864;52.526;19.672;2022-12-18T08:55:00;103018.22;;;-3.56;100.00
61908;BME280;47864;52.526;19.672;2022-12-18T08:57:02;103018.22;;;-3.55;100.00
61908;BME280;47864;52.526;19.672;2022-12-18T08:59:03;103006.97;;;-3.86;100.00
61908;BME280;47864;52.526;19.672;2022-12-18T09:01:07;103026.88;;;-3.68;100.00
61908;BME280;47864;52.526;19.672;2022-12-18T09:03:17;103010.44;;;-3.64;100.00
61908;BME280;47864;52.526;19.672;2022-12-18T09:05:20;103010.44;;;-3.64;100.00
61908;BME280;47864;52.526;19.672;2022-12-18T09:07:23;103006.13;;;-3.74;100.00
61908;BME280;47864;52.526;19.672;2022-12-18T09:09:24;103022.50;;;-3.37;100.00
61908;BME280;47864;52.526;19.672;2022-12-18T09:11:28;103047.56;;;-3.25;100.00
61908;BME280;47864;52.526;19.672;2022-12-18T09:13:30;103049.25;;;-3.01;100.00
61908;BME280;47864;52.526;19.672;2022-12-18T09:15:32;103034.56;;;-3.07;100.00
61908;BME280;47864;52.526;19.672;2022-12-18T09:17:34;103036.34;;;-3.21;100.00
61908;BME280;47864;52.526;19.672;2022-12-18T09:19:35;103033.75;;;-3.23;100.00
61908;BME280;47864;52.526;19.672;2022-12-18T09:21:37;103055.31;;;-2.99;100.00
61908;BME280;47864;52.526;19.672;2022-12-18T09:23:43;103058.78;;;-2.99;100.00
61908;BME280;47864;52.526;19.672;2022-12-18T09:25:47;103061.38;;;-3.00;100.00
61908;BME280;47864;52.526;19.672;2022-12-18T09:27:48;103053.63;;;-3.23;100.00
61908;BME280;47864;52.526;19.672;2022-12-18T09:29:50;103050.13;;;-3.09;100.00
61908;BME280;47864;52.526;19.672;2022-12-18T09:31:52;103037.19;;;-3.24;100.00
61908;BME280;47864;52.526;19.672;2022-12-18T09:33:55;103052.69;;;-3.04;100.00
61908;BME280;47864;52.526;19.672;2022-12-18T09:35:57;103025.91;;;-3.09;100.00
61908;BME280;47864;52.526;19.672;2022-12-18T09:37:59;103052.66;;;-2.84;100.00
61908;BME280;47864;52.526;19.672;2022-12-18T09:40:00;103061.38;;;-3.05;100.00
61908;BME280;47864;52.526;19.672;2022-12-18T09:42:02;103032.91;;;-3.40;100.00
61908;BME280;47864;52.526;19.672;2022-12-18T09:46:33;103064.00;;;-3.20;100.00
61908;BME280;47864;52.526;19.672;2022-12-18T09:48:43;103044.09;;;-3.14;100.00
61908;BME280;47864;52.526;19.672;2022-12-18T09:50:47;103057.91;;;-3.04;100.00
61908;BME280;47864;52.526;19.672;2022-12-18T09:52:53;103030.19;;;-2.96;100.00
61908;BME280;47864;52.526;19.672;2022-12-18T09:55:01;103050.00;;;-2.67;100.00
61908;BME280;47864;52.526;19.672;2022-12-18T09:57:05;103030.13;;;-2.73;100.00
61908;BME280;47864;52.526;19.672;2022-12-18T09:59:17;103051.72;;;-2.68;100.00
61908;BME280;47864;52.526;19.672;2022-12-18T10:01:22;103045.69;;;-2.78;100.00
61908;BME280;47864;52.526;19.672;2022-12-18T10:03:24;103046.69;;;-3.17;100.00
61908;BME280;47864;52.526;19.672;2022-12-18T10:05:32;103051.03;;;-3.26;100.00
61908;BME280;47864;52.526;19.672;2022-12-18T10:10:07;103045.84;;;-3.14;100.00
61908;BME280;47864;52.526;19.672;2022-12-18T10:14:43;103060.31;;;-2.49;100.00
61908;BME280;47864;52.526;19.672;2022-12-18T10:17:02;103053.34;;;-2.40;100.00
61908;BME280;47864;52.526;19.672;2022-12-18T10:26:14;103046.50;;;-2.60;100.00
61908;BME280;47864;52.526;19.672;2022-12-18T10:28:18;103062.09;;;-2.59;100.00
61908;BME280;47864;52.526;19.672;2022-12-18T10:30:22;103063.03;;;-2.83;100.00
61908;BME280;47864;52.526;19.672;2022-12-18T10:32:28;103066.41;;;-2.62;100.00
61908;BME280;47864;52.526;19.672;2022-12-18T10:34:30;103064.66;;;-2.51;100.00
61908;BME280;47864;52.526;19.672;2022-12-18T10:36:31;103067.22;;;-2.47;100.00
61908;BME280;47864;52.526;19.672;2022-12-18T10:38:33;103053.47;;;-2.64;100.00
61908;BME280;47864;52.526;19.672;2022-12-18T10:41:02;103056.03;;;-2.61;100.00
61908;BME280;47864;52.526;19.672;2022-12-18T10:43:11;103066.44;;;-2.72;100.00
61908;BME280;47864;52.526;19.672;2022-12-18T10:45:15;103060.34;;;-2.57;100.00
61908;BME280;47864;52.526;19.672;2022-12-18T10:47:18;103021.47;;;-2.72;100.00
61908;BME280;47864;52.526;19.672;2022-12-18T10:49:28;103057.88;;;-2.89;100.00
61908;BME280;47864;52.526;19.672;2022-12-18T10:51:33;103061.28;;;-2.75;100.00
61908;BME280;47864;52.526;19.672;2022-12-18T10:53:36;103063.06;;;-2.89;100.00
61908;BME280;47864;52.526;19.672;2022-12-18T10:55:44;103041.41;;;-2.80;100.00
61908;BME280;47864;52.526;19.672;2022-12-18T10:57:47;103063.03;;;-2.84;100.00
61908;BME280;47864;52.526;19.672;2022-12-18T10:59:54;103052.69;;;-2.96;100.00
61908;BME280;47864;52.526;19.672;2022-12-18T11:01:57;103040.63;;;-3.20;100.00
61908;BME280;47864;52.526;19.672;2022-12-18T11:04:01;103057.09;;;-3.33;100.00
61908;BME280;47864;52.526;19.672;2022-12-18T11:06:15;103047.56;;;-3.37;100.00
61908;BME280;47864;52.526;19.672;2022-12-18T11:08:21;103034.59;;;-3.37;100.00
61908;BME280;47864;52.526;19.672;2022-12-18T11:10:35;103047.59;;;-3.42;100.00